Glover River (Oklahoma), Glover (07337900)

StateOklahomaLatestPoor (87 cfs)
RiverGlover RiverRatingObservedEstimated
Updated2026-05-05 5:30 (1 hour ago)Flood - The river is flooding. Obstacles can be treacherous or deadly. The river should be avoided at this stage for casual trips and definitely for the inexperienced. Trips should be attempted only with protective gear and equipment.Flood(none)2227
Discharge87 cfs (median: 351 cfs)High - The river is high and potentially dangerous, especially for the young and / or inexperienced. Normal stream obstacles are sometimes difficult to navigate. Extended distances can be attempted, but canoe travel may not be advisable.High(none)749
Height3.03 feetGood - Conditions are ideal for a canoe or kayak. Boats typically will drag on fewer than one-quarter of riffles, if at all, and portages are unnecessary or rare. Normal float lengths can be attempted without a problem.Good100271
TrendFalling (falling over 24 hours)Low - River is low but can still be floated. Some riffles are okay but most come with significant dragging and might need a portage. Float lengths should be reduced to accommodate low flow, dragging, and portages.Low(none)98
USGSExternal icon USGS Site (External icon Duck Duck Go Maps)Poor - River is too low to float comfortably. Most or all riffles will drag or must be portaged and some obstacles (such as slick shelf rock) cause undue problems. Avoid the river at this stage for casual paddling trips.Poor(none)8

Trending Data

Plot Image

Trips for Glover River (Oklahoma), Glover (07337900)

DateStartEndDistanceConditionDischargeHeightFishingDetails
Click for details2009-05-30 Road D185 Jones River Ranch Road Total trip distance: 4.8 miles4.8 Good 100 3.62 Fair GSF
LSF
SMB
GSF, LSF, SMB
Fillmore, Brian
Fillmore, Rebecca
Ligon, Day
Fillmore, Brian; Fillmore, Rebecca; Ligon, Day
No notes for this trip<i>No notes for this trip</i> USGS Gauge Data:
Glover (07337900)
Discharge: 100
Height: 3.62
<b>USGS Gauge Data:</b></br />Glover (07337900)<br />Discharge: 100<br />Height: 3.62
Source: FillmoreSource: Fillmore

A total of 1 rows are displayed.

Trip Summary for Glover River (Oklahoma), Glover (07337900)

Miles4.8
Trips1
People3
Dates1
Years1
Months1
Rows1
Sources1

Condition Descriptions

Fishing Conditions

Fish Species

Notes

Classic Trip List

The classic River Trips application is still available for use. It is updated with the new system using a data retrofit. It is no longer maintained. The original River Trips application is no longer updated (as of 1 Dec 2016) but can be checked for errors or for the condition of the data before it was converted to the new system.

Gauge Data Table

ObservationHeightDischargeMaximum
Discharge
Minimum
Discharge
Mean
Discharge
P05P10P20P25P50
(Median)
P75P80P90P95
2026-05-05 05:30 3.03 87 4590 (1991) 18 (1987) 735 47 61 91 147 351 1070 1180 1980 3350
2026-05-05 04:30 3.06 91 4590 (1991) 18 (1987) 735 47 61 91 147 351 1070 1180 1980 3350
2026-05-05 03:30 3.07 92 4590 (1991) 18 (1987) 735 47 61 91 147 351 1070 1180 1980 3350
2026-05-05 02:30 3.08 93 4590 (1991) 18 (1987) 735 47 61 91 147 351 1070 1180 1980 3350
2026-05-05 01:30 3.08 93 4590 (1991) 18 (1987) 735 47 61 91 147 351 1070 1180 1980 3350
2026-05-05 00:30 3.09 95 4590 (1991) 18 (1987) 735 47 61 91 147 351 1070 1180 1980 3350
2026-05-04 23:30 3.07 92 4590 (1991) 18 (1987) 735 47 61 91 147 351 1070 1180 1980 3350
2026-05-04 22:30 3.08 93 7840 (1990) 19 (1987) 898 46 66 109 167 352 1160 1430 2210 3090
2026-05-04 21:30 3.10 96 7840 (1990) 19 (1987) 898 46 66 109 167 352 1160 1430 2210 3090
2026-05-04 20:30 3.10 96 7840 (1990) 19 (1987) 898 46 66 109 167 352 1160 1430 2210 3090
2026-05-04 19:30 3.15 103 7840 (1990) 19 (1987) 898 46 66 109 167 352 1160 1430 2210 3090
2026-05-04 18:30 3.13 100 7840 (1990) 19 (1987) 898 46 66 109 167 352 1160 1430 2210 3090
2026-05-04 17:30 3.14 101 7840 (1990) 19 (1987) 898 46 66 109 167 352 1160 1430 2210 3090
2026-05-04 16:30 3.16 104 7840 (1990) 19 (1987) 898 46 66 109 167 352 1160 1430 2210 3090
2026-05-04 15:30 3.16 104 7840 (1990) 19 (1987) 898 46 66 109 167 352 1160 1430 2210 3090
2026-05-04 14:30 3.17 106 7840 (1990) 19 (1987) 898 46 66 109 167 352 1160 1430 2210 3090
2026-05-04 13:30 3.19 108 7840 (1990) 19 (1987) 898 46 66 109 167 352 1160 1430 2210 3090
2026-05-04 12:30 3.19 108 7840 (1990) 19 (1987) 898 46 66 109 167 352 1160 1430 2210 3090
2026-05-04 11:30 3.17 106 7840 (1990) 19 (1987) 898 46 66 109 167 352 1160 1430 2210 3090
2026-05-04 10:30 3.24 116 7840 (1990) 19 (1987) 898 46 66 109 167 352 1160 1430 2210 3090
2026-05-04 09:30 3.22 113 7840 (1990) 19 (1987) 898 46 66 109 167 352 1160 1430 2210 3090
2026-05-04 08:30 3.23 114 7840 (1990) 19 (1987) 898 46 66 109 167 352 1160 1430 2210 3090
2026-05-04 07:30 3.22 113 7840 (1990) 19 (1987) 898 46 66 109 167 352 1160 1430 2210 3090
2026-05-04 06:30 3.24 116 7840 (1990) 19 (1987) 898 46 66 109 167 352 1160 1430 2210 3090
2026-05-04 05:30 3.22 113 7840 (1990) 19 (1987) 898 46 66 109 167 352 1160 1430 2210 3090
2026-05-04 04:30 3.26 119 7840 (1990) 19 (1987) 898 46 66 109 167 352 1160 1430 2210 3090
2026-05-04 03:30 3.24 116 7840 (1990) 19 (1987) 898 46 66 109 167 352 1160 1430 2210 3090
2026-05-04 02:30 3.25 117 7840 (1990) 19 (1987) 898 46 66 109 167 352 1160 1430 2210 3090
2026-05-04 01:30 3.27 120 7840 (1990) 19 (1987) 898 46 66 109 167 352 1160 1430 2210 3090
2026-05-04 00:30 3.29 123 7840 (1990) 19 (1987) 898 46 66 109 167 352 1160 1430 2210 3090
2026-05-03 23:30 3.29 123 7840 (1990) 19 (1987) 898 46 66 109 167 352 1160 1430 2210 3090
2026-05-03 22:30 3.31 126 36000 (1990) 20 (1987) 1920 50 75 123 175 374 1220 1690 6110 8440
2026-05-03 21:30 3.33 129 36000 (1990) 20 (1987) 1920 50 75 123 175 374 1220 1690 6110 8440
2026-05-03 20:30 3.28 122 36000 (1990) 20 (1987) 1920 50 75 123 175 374 1220 1690 6110 8440
2026-05-03 19:30 3.34 131 36000 (1990) 20 (1987) 1920 50 75 123 175 374 1220 1690 6110 8440
2026-05-03 18:30 3.34 131 36000 (1990) 20 (1987) 1920 50 75 123 175 374 1220 1690 6110 8440
2026-05-03 16:30 3.36 134 36000 (1990) 20 (1987) 1920 50 75 123 175 374 1220 1690 6110 8440
2026-05-03 15:30 3.41 142 36000 (1990) 20 (1987) 1920 50 75 123 175 374 1220 1690 6110 8440
2026-05-03 14:30 3.40 141 36000 (1990) 20 (1987) 1920 50 75 123 175 374 1220 1690 6110 8440
2026-05-03 13:30 3.38 137 36000 (1990) 20 (1987) 1920 50 75 123 175 374 1220 1690 6110 8440
2026-05-03 12:30 3.41 142 36000 (1990) 20 (1987) 1920 50 75 123 175 374 1220 1690 6110 8440
2026-05-03 11:30 3.43 146 36000 (1990) 20 (1987) 1920 50 75 123 175 374 1220 1690 6110 8440
2026-05-03 10:30 3.44 147 36000 (1990) 20 (1987) 1920 50 75 123 175 374 1220 1690 6110 8440
2026-05-03 09:30 3.46 151 36000 (1990) 20 (1987) 1920 50 75 123 175 374 1220 1690 6110 8440
2026-05-03 08:30 3.46 151 36000 (1990) 20 (1987) 1920 50 75 123 175 374 1220 1690 6110 8440
2026-05-03 07:30 3.46 151 36000 (1990) 20 (1987) 1920 50 75 123 175 374 1220 1690 6110 8440
2026-05-03 06:30 3.49 156 36000 (1990) 20 (1987) 1920 50 75 123 175 374 1220 1690 6110 8440
2026-05-03 05:30 3.51 159 36000 (1990) 20 (1987) 1920 50 75 123 175 374 1220 1690 6110 8440
2026-05-03 04:30 3.46 151 36000 (1990) 20 (1987) 1920 50 75 123 175 374 1220 1690 6110 8440
2026-05-02 21:30 3.57 173 17300 (1990) 21 (1987) 1500 53 75 123 195 422 1010 1350 3710 11600
2026-05-02 20:30 3.58 176 17300 (1990) 21 (1987) 1500 53 75 123 195 422 1010 1350 3710 11600
2026-05-02 19:30 3.57 173 17300 (1990) 21 (1987) 1500 53 75 123 195 422 1010 1350 3710 11600
2026-05-02 18:30 3.61 184 17300 (1990) 21 (1987) 1500 53 75 123 195 422 1010 1350 3710 11600
2026-05-02 17:30 3.60 181 17300 (1990) 21 (1987) 1500 53 75 123 195 422 1010 1350 3710 11600
2026-05-02 16:30 3.64 192 17300 (1990) 21 (1987) 1500 53 75 123 195 422 1010 1350 3710 11600
2026-05-02 15:30 3.63 189 17300 (1990) 21 (1987) 1500 53 75 123 195 422 1010 1350 3710 11600
2026-05-02 14:30 3.66 198 17300 (1990) 21 (1987) 1500 53 75 123 195 422 1010 1350 3710 11600
2026-05-02 13:30 3.66 198 17300 (1990) 21 (1987) 1500 53 75 123 195 422 1010 1350 3710 11600
2026-05-02 12:30 3.67 201 17300 (1990) 21 (1987) 1500 53 75 123 195 422 1010 1350 3710 11600
2026-05-02 11:30 3.70 210 17300 (1990) 21 (1987) 1500 53 75 123 195 422 1010 1350 3710 11600
2026-05-02 10:30 3.67 201 17300 (1990) 21 (1987) 1500 53 75 123 195 422 1010 1350 3710 11600
2026-05-02 09:30 3.75 226 17300 (1990) 21 (1987) 1500 53 75 123 195 422 1010 1350 3710 11600
2026-05-02 08:30 3.76 229 17300 (1990) 21 (1987) 1500 53 75 123 195 422 1010 1350 3710 11600
2026-05-02 07:30 3.79 239 17300 (1990) 21 (1987) 1500 53 75 123 195 422 1010 1350 3710 11600
2026-05-02 06:30 3.79 239 17300 (1990) 21 (1987) 1500 53 75 123 195 422 1010 1350 3710 11600
2026-05-02 05:30 3.80 243 17300 (1990) 21 (1987) 1500 53 75 123 195 422 1010 1350 3710 11600
2026-05-02 04:30 3.81 246 17300 (1990) 21 (1987) 1500 53 75 123 195 422 1010 1350 3710 11600
2026-05-02 03:30 3.79 239 17300 (1990) 21 (1987) 1500 53 75 123 195 422 1010 1350 3710 11600
2026-05-02 02:30 3.84 257 17300 (1990) 21 (1987) 1500 53 75 123 195 422 1010 1350 3710 11600
2026-05-02 01:30 3.84 257 17300 (1990) 21 (1987) 1500 53 75 123 195 422 1010 1350 3710 11600
2026-05-02 00:30 3.87 267 17300 (1990) 21 (1987) 1500 53 75 123 195 422 1010 1350 3710 11600
2026-05-01 23:30 3.85 260 17300 (1990) 21 (1987) 1500 53 75 123 195 422 1010 1350 3710 11600
2026-05-01 22:30 3.88 271 13200 (2019) 23 (1987) 1060 59 77 137 174 406 1190 1540 2350 4160
2026-05-01 21:30 3.89 275 13200 (2019) 23 (1987) 1060 59 77 137 174 406 1190 1540 2350 4160
2026-05-01 19:30 3.90 278 13200 (2019) 23 (1987) 1060 59 77 137 174 406 1190 1540 2350 4160
2026-05-01 18:30 3.91 282 13200 (2019) 23 (1987) 1060 59 77 137 174 406 1190 1540 2350 4160
2026-05-01 17:30 3.94 294 13200 (2019) 23 (1987) 1060 59 77 137 174 406 1190 1540 2350 4160
2026-05-01 16:30 3.97 305 13200 (2019) 23 (1987) 1060 59 77 137 174 406 1190 1540 2350 4160
2026-05-01 15:30 3.98 309 13200 (2019) 23 (1987) 1060 59 77 137 174 406 1190 1540 2350 4160
2026-05-01 14:30 3.99 313 13200 (2019) 23 (1987) 1060 59 77 137 174 406 1190 1540 2350 4160
2026-05-01 13:30 3.99 313 13200 (2019) 23 (1987) 1060 59 77 137 174 406 1190 1540 2350 4160
2026-05-01 12:30 4.00 317 13200 (2019) 23 (1987) 1060 59 77 137 174 406 1190 1540 2350 4160
2026-05-01 11:30 4.03 330 13200 (2019) 23 (1987) 1060 59 77 137 174 406 1190 1540 2350 4160
2026-05-01 10:30 4.04 334 13200 (2019) 23 (1987) 1060 59 77 137 174 406 1190 1540 2350 4160
2026-05-01 09:30 4.04 334 13200 (2019) 23 (1987) 1060 59 77 137 174 406 1190 1540 2350 4160
2026-05-01 08:30 4.03 330 13200 (2019) 23 (1987) 1060 59 77 137 174 406 1190 1540 2350 4160
2026-05-01 07:30 4.03 330 13200 (2019) 23 (1987) 1060 59 77 137 174 406 1190 1540 2350 4160
2026-05-01 06:30 4.05 338 13200 (2019) 23 (1987) 1060 59 77 137 174 406 1190 1540 2350 4160
2026-05-01 05:30 4.06 343 13200 (2019) 23 (1987) 1060 59 77 137 174 406 1190 1540 2350 4160
2026-05-01 04:30 4.08 351 13200 (2019) 23 (1987) 1060 59 77 137 174 406 1190 1540 2350 4160
2026-05-01 03:30 4.08 351 13200 (2019) 23 (1987) 1060 59 77 137 174 406 1190 1540 2350 4160
2026-05-01 02:30 4.09 356 13200 (2019) 23 (1987) 1060 59 77 137 174 406 1190 1540 2350 4160
2026-05-01 01:30 4.08 351 13200 (2019) 23 (1987) 1060 59 77 137 174 406 1190 1540 2350 4160
2026-05-01 00:30 4.12 369 13200 (2019) 23 (1987) 1060 59 77 137 174 406 1190 1540 2350 4160
2026-04-30 23:30 4.14 378 13200 (2019) 23 (1987) 1060 59 77 137 174 406 1190 1540 2350 4160
2026-04-30 22:30 4.15 382 8880 (2016) 25 (1987) 943 66 86 146 175 371 786 983 2600 5080
2026-04-30 21:30 4.18 396 8880 (2016) 25 (1987) 943 66 86 146 175 371 786 983 2600 5080
2026-04-30 20:30 4.19 401 8880 (2016) 25 (1987) 943 66 86 146 175 371 786 983 2600 5080
2026-04-30 19:30 4.19 401 8880 (2016) 25 (1987) 943 66 86 146 175 371 786 983 2600 5080
2026-04-30 18:30 4.21 410 8880 (2016) 25 (1987) 943 66 86 146 175 371 786 983 2600 5080
2026-04-30 17:30 4.23 420 8880 (2016) 25 (1987) 943 66 86 146 175 371 786 983 2600 5080
2026-04-30 16:30 4.28 444 8880 (2016) 25 (1987) 943 66 86 146 175 371 786 983 2600 5080
2026-04-30 15:30 4.26 434 8880 (2016) 25 (1987) 943 66 86 146 175 371 786 983 2600 5080
2026-04-30 14:30 4.30 454 8880 (2016) 25 (1987) 943 66 86 146 175 371 786 983 2600 5080
2026-04-30 13:30 4.30 454 8880 (2016) 25 (1987) 943 66 86 146 175 371 786 983 2600 5080
2026-04-30 12:30 4.31 459 8880 (2016) 25 (1987) 943 66 86 146 175 371 786 983 2600 5080
2026-04-30 11:30 4.34 475 8880 (2016) 25 (1987) 943 66 86 146 175 371 786 983 2600 5080
2026-04-30 10:30 4.35 480 8880 (2016) 25 (1987) 943 66 86 146 175 371 786 983 2600 5080
2026-04-30 09:30 4.37 491 8880 (2016) 25 (1987) 943 66 86 146 175 371 786 983 2600 5080
2026-04-30 08:30 4.40 507 8880 (2016) 25 (1987) 943 66 86 146 175 371 786 983 2600 5080
2026-04-30 07:30 4.40 507 8880 (2016) 25 (1987) 943 66 86 146 175 371 786 983 2600 5080
2026-04-30 06:30 4.42 518 8880 (2016) 25 (1987) 943 66 86 146 175 371 786 983 2600 5080
2026-04-30 05:30 4.43 524 8880 (2016) 25 (1987) 943 66 86 146 175 371 786 983 2600 5080
2026-04-30 04:30 4.46 541 8880 (2016) 25 (1987) 943 66 86 146 175 371 786 983 2600 5080
2026-04-30 03:30 4.49 558 8880 (2016) 25 (1987) 943 66 86 146 175 371 786 983 2600 5080
2026-04-30 02:30 4.52 576 8880 (2016) 25 (1987) 943 66 86 146 175 371 786 983 2600 5080
2026-04-30 01:30 4.55 594 8880 (2016) 25 (1987) 943 66 86 146 175 371 786 983 2600 5080
2026-04-30 00:30 4.55 594 8880 (2016) 25 (1987) 943 66 86 146 175 371 786 983 2600 5080
2026-04-29 23:30 4.60 625 8880 (2016) 25 (1987) 943 66 86 146 175 371 786 983 2600 5080
2026-04-29 22:30 4.64 650 14300 (2021) 29 (1987) 1060 56 91 139 172 397 920 1270 2770 5220
2026-04-29 21:30 4.66 663 14300 (2021) 29 (1987) 1060 56 91 139 172 397 920 1270 2770 5220
2026-04-29 20:30 4.73 710 14300 (2021) 29 (1987) 1060 56 91 139 172 397 920 1270 2770 5220
2026-04-29 19:30 4.76 731 14300 (2021) 29 (1987) 1060 56 91 139 172 397 920 1270 2770 5220
2026-04-29 18:30 4.79 752 14300 (2021) 29 (1987) 1060 56 91 139 172 397 920 1270 2770 5220
2026-04-29 17:30 4.72 704 14300 (2021) 29 (1987) 1060 56 91 139 172 397 920 1270 2770 5220
2026-04-29 16:30 4.90 831 14300 (2021) 29 (1987) 1060 56 91 139 172 397 920 1270 2770 5220
2026-04-29 15:30 4.93 851 14300 (2021) 29 (1987) 1060 56 91 139 172 397 920 1270 2770 5220
2026-04-29 14:30 4.98 885 14300 (2021) 29 (1987) 1060 56 91 139 172 397 920 1270 2770 5220
2026-04-29 13:30 5.06 948 14300 (2021) 29 (1987) 1060 56 91 139 172 397 920 1270 2770 5220
2026-04-29 12:30 5.08 964 14300 (2021) 29 (1987) 1060 56 91 139 172 397 920 1270 2770 5220
2026-04-29 11:30 5.13 1010 14300 (2021) 29 (1987) 1060 56 91 139 172 397 920 1270 2770 5220
2026-04-29 10:30 5.17 1040 14300 (2021) 29 (1987) 1060 56 91 139 172 397 920 1270 2770 5220
2026-04-29 09:30 5.20 1070 14300 (2021) 29 (1987) 1060 56 91 139 172 397 920 1270 2770 5220
2026-04-29 08:30 5.20 1070 14300 (2021) 29 (1987) 1060 56 91 139 172 397 920 1270 2770 5220
2026-04-29 07:30 5.21 1080 14300 (2021) 29 (1987) 1060 56 91 139 172 397 920 1270 2770 5220
2026-04-29 06:30 5.25 1110 14300 (2021) 29 (1987) 1060 56 91 139 172 397 920 1270 2770 5220
2026-04-29 05:30 5.31 1170 14300 (2021) 29 (1987) 1060 56 91 139 172 397 920 1270 2770 5220
2026-04-29 04:30 5.35 1210 14300 (2021) 29 (1987) 1060 56 91 139 172 397 920 1270 2770 5220
2026-04-29 03:30 5.42 1280 14300 (2021) 29 (1987) 1060 56 91 139 172 397 920 1270 2770 5220
2026-04-29 02:30 5.54 1400 14300 (2021) 29 (1987) 1060 56 91 139 172 397 920 1270 2770 5220
2026-04-29 01:30 5.59 1450 14300 (2021) 29 (1987) 1060 56 91 139 172 397 920 1270 2770 5220
2026-04-29 00:30 5.56 1420 14300 (2021) 29 (1987) 1060 56 91 139 172 397 920 1270 2770 5220
2026-04-28 23:30 5.42 1280 14300 (2021) 29 (1987) 1060 56 91 139 172 397 920 1270 2770 5220
2026-04-28 22:30 5.22 1090 4080 (1963) 31 (1987) 722 57 100 151 184 419 795 1090 1760 3230
2026-04-28 21:30 4.95 864 4080 (1963) 31 (1987) 722 57 100 151 184 419 795 1090 1760 3230
2026-04-28 20:30 4.49 558 4080 (1963) 31 (1987) 722 57 100 151 184 419 795 1090 1760 3230
2026-04-28 19:30 4.28 444 4080 (1963) 31 (1987) 722 57 100 151 184 419 795 1090 1760 3230
2026-04-28 18:30 4.11 365 4080 (1963) 31 (1987) 722 57 100 151 184 419 795 1090 1760 3230
2026-04-28 17:30 3.95 297 4080 (1963) 31 (1987) 722 57 100 151 184 419 795 1090 1760 3230
2026-04-28 16:30 3.94 294 4080 (1963) 31 (1987) 722 57 100 151 184 419 795 1090 1760 3230
2026-04-28 15:30 3.96 301 4080 (1963) 31 (1987) 722 57 100 151 184 419 795 1090 1760 3230
2026-04-28 14:30 3.98 309 4080 (1963) 31 (1987) 722 57 100 151 184 419 795 1090 1760 3230
2026-04-28 13:30 4.01 321 4080 (1963) 31 (1987) 722 57 100 151 184 419 795 1090 1760 3230
2026-04-28 12:30 4.01 321 4080 (1963) 31 (1987) 722 57 100 151 184 419 795 1090 1760 3230
2026-04-28 11:30 3.86 264 4080 (1963) 31 (1987) 722 57 100 151 184 419 795 1090 1760 3230
2026-04-28 10:30 3.93 290 4080 (1963) 31 (1987) 722 57 100 151 184 419 795 1090 1760 3230
2026-04-28 09:30 3.93 290 4080 (1963) 31 (1987) 722 57 100 151 184 419 795 1090 1760 3230
2026-04-28 08:30 3.95 297 4080 (1963) 31 (1987) 722 57 100 151 184 419 795 1090 1760 3230
2026-04-28 07:30 3.95 297 4080 (1963) 31 (1987) 722 57 100 151 184 419 795 1090 1760 3230
2026-04-28 06:30 3.97 305 4080 (1963) 31 (1987) 722 57 100 151 184 419 795 1090 1760 3230
2026-04-28 05:30 3.98 309 4080 (1963) 31 (1987) 722 57 100 151 184 419 795 1090 1760 3230
2026-04-28 04:30 3.99 313 4080 (1963) 31 (1987) 722 57 100 151 184 419 795 1090 1760 3230
2026-04-28 03:30 4.00 317 4080 (1963) 31 (1987) 722 57 100 151 184 419 795 1090 1760 3230
2026-04-28 02:30 4.01 321 4080 (1963) 31 (1987) 722 57 100 151 184 419 795 1090 1760 3230
2026-04-28 01:30 4.02 326 4080 (1963) 31 (1987) 722 57 100 151 184 419 795 1090 1760 3230
2026-04-28 00:30 4.04 334 4080 (1963) 31 (1987) 722 57 100 151 184 419 795 1090 1760 3230
2026-04-27 23:30 4.05 338 4080 (1963) 31 (1987) 722 57 100 151 184 419 795 1090 1760 3230

A total of 167 rows are displayed for years 1962 through 2025.